createdAt,value
2022-09-02T00:00:14.089Z,1.60
2022-09-02T00:02:42.284Z,1.40
2022-09-02T00:05:10.403Z,1.83
2022-09-02T00:07:38.411Z,1.83
2022-09-02T00:10:09.120Z,1.77
2022-09-02T00:12:38.069Z,1.50
2022-09-02T00:15:08.317Z,1.93
2022-09-02T00:17:36.406Z,1.80
2022-09-02T00:20:05.105Z,1.30
2022-09-02T00:22:33.369Z,1.93
2022-09-02T00:25:01.389Z,1.33
2022-09-02T00:27:29.512Z,1.80
2022-09-02T00:29:57.502Z,1.43
2022-09-02T00:32:26.930Z,1.80
2022-09-02T00:34:56.119Z,1.70
2022-09-02T00:37:24.852Z,1.80
2022-09-02T00:39:52.939Z,1.80
2022-09-02T00:42:21.275Z,1.67
2022-09-02T00:44:49.788Z,2.10
2022-09-02T00:47:17.898Z,2.07
2022-09-02T00:49:50.896Z,1.60
2022-09-02T00:52:22.776Z,1.73
2022-09-02T00:54:54.455Z,1.83
2022-09-02T00:57:26.073Z,1.50
2022-09-02T01:00:00.056Z,1.70
2022-09-02T01:02:29.070Z,1.57
2022-09-02T01:04:58.719Z,1.63
2022-09-02T01:07:29.690Z,1.87
2022-09-02T01:10:00.134Z,1.50
2022-09-02T01:12:30.191Z,1.60
2022-09-02T01:14:58.828Z,1.50
2022-09-02T01:17:27.680Z,1.77
2022-09-02T01:20:02.681Z,2.00
2022-09-02T01:22:34.227Z,1.60
2022-09-02T01:25:05.368Z,1.50
2022-09-02T01:27:33.373Z,1.67
2022-09-02T01:30:01.944Z,1.73
2022-09-02T01:32:31.385Z,1.97
2022-09-02T01:34:59.359Z,1.93
2022-09-02T01:37:27.935Z,1.60
2022-09-02T01:39:57.633Z,1.63
2022-09-02T01:42:26.644Z,1.80
2022-09-02T01:44:54.831Z,1.57
2022-09-02T01:47:24.937Z,1.30
2022-09-02T01:49:53.720Z,1.70
2022-09-02T01:52:24.032Z,1.60
2022-09-02T01:54:52.629Z,1.73
2022-09-02T01:57:24.642Z,1.30
2022-09-02T01:59:52.831Z,2.00
2022-09-02T02:02:22.214Z,2.30
2022-09-02T02:04:50.532Z,2.10
2022-09-02T02:07:20.825Z,1.70
2022-09-02T02:09:48.921Z,1.43
2022-09-02T02:12:17.351Z,1.83
2022-09-02T02:14:46.710Z,1.97
2022-09-02T02:17:15.101Z,1.77
2022-09-02T02:19:43.740Z,1.70
2022-09-02T02:22:12.160Z,1.33
2022-09-02T02:24:40.098Z,1.57
2022-09-02T02:27:08.364Z,2.30
2022-09-02T02:29:36.323Z,2.20
2022-09-02T02:32:07.563Z,1.83
2022-09-02T02:34:35.611Z,1.90
2022-09-02T02:37:03.595Z,1.83
2022-09-02T02:39:31.596Z,1.90
2022-09-02T02:41:59.730Z,2.60
2022-09-02T02:44:29.348Z,2.40
2022-09-02T02:46:58.624Z,2.03
2022-09-02T02:49:28.563Z,1.90
2022-09-02T02:51:56.500Z,2.10
2022-09-02T02:54:24.445Z,2.10
2022-09-02T02:57:03.107Z,2.03
2022-09-02T02:59:34.321Z,2.03
2022-09-02T03:02:02.449Z,2.30
2022-09-02T03:04:31.937Z,2.00
2022-09-02T03:07:14.077Z,2.33
2022-09-02T03:09:43.151Z,2.13
2022-09-02T03:12:11.338Z,1.53
2022-09-02T03:14:39.374Z,1.93
2022-09-02T03:17:07.538Z,1.80
2022-09-02T03:19:36.877Z,1.80
2022-09-02T03:22:05.380Z,1.70
2022-09-02T03:24:33.470Z,1.70
2022-09-02T03:27:01.509Z,2.03
2022-09-02T03:29:29.541Z,1.90
2022-09-02T03:31:57.589Z,2.37
2022-09-02T03:34:25.961Z,1.50
2022-09-02T03:36:55.324Z,1.97
2022-09-02T03:39:23.364Z,2.10
2022-09-02T03:41:51.340Z,1.60
2022-09-02T03:44:19.600Z,1.70
2022-09-02T03:46:47.884Z,1.80
2022-09-02T03:49:16.046Z,1.97
2022-09-02T03:51:44.866Z,1.77
2022-09-02T03:54:14.239Z,1.80
2022-09-02T03:56:42.301Z,1.87
2022-09-02T03:59:10.895Z,1.70
2022-09-02T04:01:38.992Z,1.90
2022-09-02T04:04:07.770Z,2.03
2022-09-02T04:06:36.276Z,1.90
2022-09-02T04:09:04.963Z,1.80
2022-09-02T04:11:34.384Z,2.00
2022-09-02T04:14:02.527Z,1.80
2022-09-02T04:16:31.001Z,1.80
2022-09-02T04:19:02.045Z,2.20
2022-09-02T04:21:33.044Z,2.23
2022-09-02T04:24:01.013Z,1.60
2022-09-02T04:26:29.310Z,2.00
2022-09-02T04:28:59.045Z,1.70
2022-09-02T04:31:30.164Z,1.90
2022-09-02T04:33:59.229Z,2.00
2022-09-02T04:36:30.824Z,1.67
2022-09-02T04:38:59.915Z,1.77
2022-09-02T04:41:31.350Z,1.90
2022-09-02T04:44:01.194Z,1.40
2022-09-02T04:46:34.677Z,1.77
2022-09-02T04:49:03.305Z,1.77
2022-09-02T04:51:31.436Z,2.33
2022-09-02T04:53:59.620Z,2.50
2022-09-02T04:56:31.074Z,1.40
2022-09-02T04:59:01.301Z,1.43
2022-09-02T05:01:33.462Z,1.37
2022-09-02T05:04:02.984Z,1.80
2022-09-02T05:06:31.353Z,1.80
2022-09-02T05:09:00.549Z,1.57
2022-09-02T05:11:29.868Z,1.80
2022-09-02T05:14:01.563Z,1.90
2022-09-02T05:16:32.088Z,1.77
2022-09-02T05:19:01.013Z,1.60
2022-09-02T05:21:29.075Z,1.70
2022-09-02T05:23:57.571Z,1.80
2022-09-02T05:26:26.070Z,1.63
2022-09-02T05:28:54.866Z,1.70
2022-09-02T05:31:24.289Z,1.70
2022-09-02T05:33:52.349Z,2.40
2022-09-02T05:36:22.858Z,1.97
2022-09-02T05:38:51.911Z,2.50
2022-09-02T05:41:23.476Z,1.63
2022-09-02T05:43:53.072Z,1.90
2022-09-02T05:46:24.412Z,1.60
2022-09-02T05:49:09.804Z,1.60
2022-09-02T05:51:44.172Z,2.70
2022-09-02T05:54:14.001Z,1.88
2022-09-02T05:56:45.010Z,1.40
2022-09-02T05:59:13.567Z,1.70
2022-09-02T06:01:43.583Z,1.63
2022-09-02T06:04:11.638Z,1.70
2022-09-02T06:06:39.682Z,1.73
2022-09-02T06:09:09.409Z,1.70
2022-09-02T06:11:40.239Z,1.60
2022-09-02T06:14:09.083Z,1.95
2022-09-02T06:16:37.725Z,1.70
2022-09-02T06:19:07.605Z,2.20
2022-09-02T06:21:36.617Z,1.92
2022-09-02T06:24:07.368Z,1.47
2022-09-02T06:26:37.391Z,1.73
2022-09-02T06:29:06.183Z,1.88
2022-09-02T06:34:26.744Z,1.90
2022-09-02T06:36:55.599Z,1.48
2022-09-02T06:39:26.052Z,1.63
2022-09-02T06:41:54.096Z,1.60
2022-09-02T06:44:22.683Z,1.55
2022-09-02T06:46:55.945Z,2.17
2022-09-02T06:49:29.517Z,1.75
2022-09-02T06:52:00.460Z,2.00
2022-09-02T06:54:28.830Z,1.70
2022-09-02T06:57:03.466Z,1.95
2022-09-02T06:59:31.961Z,1.95
2022-09-02T07:02:00.165Z,1.63
2022-09-02T07:04:47.447Z,1.40
2022-09-02T07:07:15.660Z,1.98
2022-09-02T07:09:44.292Z,1.58
2022-09-02T07:12:12.645Z,1.80
2022-09-02T07:14:42.891Z,1.98
2022-09-02T07:17:12.522Z,1.55
2022-09-02T07:19:41.991Z,1.45
2022-09-02T07:22:10.564Z,1.60
2022-09-02T07:24:40.391Z,1.50
2022-09-02T07:27:08.629Z,1.45
2022-09-02T07:29:37.105Z,1.45
2022-09-02T07:32:05.936Z,1.48
2022-09-02T07:34:34.020Z,1.75
2022-09-02T07:37:08.612Z,1.58
2022-09-02T07:39:38.710Z,1.48
2022-09-02T07:42:07.594Z,1.55
2022-09-02T07:44:35.962Z,1.23
2022-09-02T07:47:04.341Z,1.58
2022-09-02T07:50:15.245Z,1.30
2022-09-02T07:52:22.011Z,1.40
2022-09-02T07:54:50.073Z,1.40
2022-09-02T07:57:18.185Z,1.60
2022-09-02T07:59:47.781Z,1.40
2022-09-02T08:02:18.012Z,1.52
2022-09-02T08:04:46.476Z,2.05
2022-09-02T08:07:14.515Z,1.80
2022-09-02T08:09:46.683Z,1.65
2022-09-02T08:12:17.726Z,2.20
2022-09-02T08:14:51.693Z,2.40
2022-09-02T08:17:19.812Z,1.58
2022-09-02T08:19:47.973Z,0.98
2022-09-02T08:22:16.370Z,1.27
2022-09-02T08:24:44.339Z,1.20
2022-09-02T08:27:13.696Z,0.90
2022-09-02T08:29:41.843Z,1.33
2022-09-02T08:32:10.127Z,1.13
2022-09-02T08:34:38.350Z,1.30
2022-09-02T08:37:07.329Z,1.80
2022-09-02T08:39:36.566Z,1.55
2022-09-02T08:42:10.160Z,1.85
2022-09-02T08:44:41.185Z,1.30
2022-09-02T08:47:16.436Z,1.45
2022-09-02T08:49:47.539Z,1.50
2022-09-02T08:52:24.224Z,1.77
2022-09-02T08:54:55.624Z,1.40
2022-09-02T08:57:27.140Z,1.15
2022-09-02T09:00:00.984Z,1.40
2022-09-02T09:02:38.267Z,1.30
2022-09-02T09:05:21.740Z,1.42
2022-09-02T09:08:00.704Z,1.48
2022-09-02T09:10:35.760Z,1.20
2022-09-02T09:13:38.255Z,1.30
2022-09-02T09:16:20.594Z,1.40
2022-09-02T09:18:56.275Z,1.50
2022-09-02T09:24:02.079Z,1.20
2022-09-02T09:26:33.972Z,1.33
2022-09-02T09:29:05.535Z,1.15
2022-09-02T09:31:38.753Z,1.33
2022-09-02T09:34:09.067Z,0.98
2022-09-02T09:36:56.054Z,1.10
2022-09-02T09:39:27.437Z,1.02
2022-09-02T09:41:57.828Z,1.20
2022-09-02T09:44:37.435Z,1.10
2022-09-02T09:47:12.571Z,1.20
2022-09-02T09:49:42.852Z,0.88
2022-09-02T09:52:10.948Z,0.85
2022-09-02T09:54:39.158Z,1.35
2022-09-02T09:57:21.648Z,1.00
2022-09-02T09:59:55.995Z,1.08
2022-09-02T10:02:34.451Z,1.15
2022-09-02T10:05:18.627Z,0.80
2022-09-02T10:07:55.516Z,1.00
2022-09-02T10:10:27.155Z,1.15
2022-09-02T10:12:57.946Z,1.13
2022-09-02T10:15:41.171Z,1.00
2022-09-02T10:18:22.786Z,1.00
2022-09-02T10:21:13.638Z,1.00
2022-09-02T10:23:52.881Z,0.90
2022-09-02T10:26:27.293Z,1.05
2022-09-02T10:29:10.532Z,0.98
2022-09-02T10:31:47.795Z,1.20
2022-09-02T10:34:29.879Z,0.93
2022-09-02T10:37:15.728Z,1.20
2022-09-02T10:40:07.929Z,1.20
2022-09-02T10:42:45.269Z,1.27
2022-09-02T10:45:18.156Z,1.35
2022-09-02T10:47:54.252Z,1.15
2022-09-02T10:50:35.955Z,1.30
2022-09-02T10:53:38.891Z,0.90
2022-09-02T10:56:10.604Z,1.20
2022-09-02T10:58:49.138Z,1.20
2022-09-02T11:01:22.688Z,1.02
2022-09-02T11:04:03.416Z,1.52
2022-09-02T11:06:58.716Z,1.20
2022-09-02T11:09:34.162Z,1.00
2022-09-02T11:12:07.700Z,1.10
2022-09-02T11:14:41.892Z,1.08
2022-09-02T11:17:21.190Z,0.93
2022-09-02T11:19:57.916Z,1.00
2022-09-02T11:22:32.483Z,0.80
2022-09-02T11:25:08.505Z,0.90
2022-09-02T11:27:43.331Z,1.50
2022-09-02T11:30:16.038Z,1.23
2022-09-02T11:32:51.485Z,0.90
2022-09-02T11:35:27.519Z,1.10
2022-09-02T11:38:02.857Z,1.15
2022-09-02T11:40:38.922Z,1.10
2022-09-02T11:43:29.968Z,0.80
2022-09-02T11:46:13.632Z,0.90
2022-09-02T11:49:15.440Z,0.95
2022-09-02T11:52:05.807Z,1.00
2022-09-02T11:54:39.691Z,1.00
2022-09-02T11:57:11.975Z,1.20
2022-09-02T12:00:14.284Z,1.00
2022-09-02T12:02:45.839Z,0.90
2022-09-02T12:05:51.625Z,1.27
2022-09-02T12:08:58.540Z,0.97
2022-09-02T12:11:45.538Z,0.93
2022-09-02T12:15:06.701Z,0.90
2022-09-02T12:18:10.483Z,0.93
2022-09-02T12:21:08.775Z,0.97
2022-09-02T12:24:21.983Z,1.13
2022-09-02T12:27:25.690Z,0.90
2022-09-02T12:29:55.527Z,0.80
2022-09-02T12:33:09.792Z,0.97
2022-09-02T12:35:53.883Z,1.20
2022-09-02T12:38:30.869Z,1.20
2022-09-02T12:41:27.874Z,1.10
2022-09-02T12:44:25.333Z,0.80
2022-09-02T12:47:03.762Z,0.73
2022-09-02T12:49:46.226Z,1.23
2022-09-02T12:52:45.024Z,1.17
2022-09-02T12:55:20.944Z,1.10
2022-09-02T12:57:51.645Z,1.23
2022-09-02T13:00:34.679Z,0.80
2022-09-02T13:03:37.667Z,1.30
2022-09-02T13:06:13.002Z,1.00
2022-09-02T13:09:10.849Z,1.20
2022-09-02T13:12:15.726Z,1.00
2022-09-02T13:15:02.659Z,1.03
2022-09-02T13:17:48.090Z,1.03
2022-09-02T13:20:56.144Z,1.20
2022-09-02T13:24:01.871Z,1.13
2022-09-02T13:27:05.503Z,1.00
2022-09-02T13:30:04.667Z,1.97
2022-09-02T13:32:35.184Z,1.40
2022-09-02T13:35:06.434Z,1.00
2022-09-02T13:37:36.968Z,1.40
2022-09-02T13:40:17.860Z,1.00
2022-09-02T13:42:49.928Z,1.47
2022-09-02T13:45:20.353Z,1.10
2022-09-02T13:47:52.753Z,1.07
2022-09-02T13:50:23.266Z,0.90
2022-09-02T13:53:45.107Z,1.00
2022-09-02T13:55:50.226Z,0.87
2022-09-02T13:58:27.147Z,0.93
2022-09-02T14:01:01.662Z,1.40
2022-09-02T14:03:33.603Z,0.90
2022-09-02T14:06:03.713Z,0.80
2022-09-02T14:08:32.686Z,1.20
2022-09-02T14:11:07.319Z,1.00
2022-09-02T14:13:36.930Z,1.00
2022-09-02T14:16:35.853Z,1.10
2022-09-02T14:19:14.731Z,1.23
2022-09-02T14:21:48.072Z,0.90
2022-09-02T14:24:23.776Z,1.27
2022-09-02T14:26:54.868Z,1.20
2022-09-02T14:29:24.307Z,1.43
2022-09-02T14:32:11.941Z,0.93
2022-09-02T14:34:43.555Z,0.97
2022-09-02T14:37:22.864Z,0.90
2022-09-02T14:40:12.268Z,1.00
2022-09-02T14:42:47.064Z,0.70
2022-09-02T14:45:15.827Z,1.00
2022-09-02T14:47:44.002Z,1.17
2022-09-02T14:50:18.848Z,1.10
2022-09-02T14:52:50.465Z,0.90
2022-09-02T14:55:47.317Z,1.10
2022-09-02T14:58:19.218Z,1.30
2022-09-02T15:00:55.776Z,0.90
2022-09-02T15:03:24.971Z,1.57
2022-09-02T15:05:54.983Z,1.03
2022-09-02T15:08:23.753Z,0.90
2022-09-02T15:10:54.557Z,0.80
2022-09-02T15:13:32.440Z,1.40
2022-09-02T15:16:00.706Z,1.10
2022-09-02T15:18:31.001Z,0.80
2022-09-02T15:21:01.071Z,1.30
2022-09-02T15:23:36.293Z,1.13
2022-09-02T15:26:05.404Z,0.90
2022-09-02T15:28:33.735Z,0.90
2022-09-02T15:31:03.543Z,1.30
2022-09-02T15:33:37.540Z,1.03
2022-09-02T15:36:12.285Z,0.97
2022-09-02T15:38:41.998Z,1.00
2022-09-02T15:41:14.815Z,0.93
2022-09-02T15:43:43.478Z,0.87
2022-09-02T15:46:21.375Z,1.10
2022-09-02T15:48:50.343Z,1.00
2022-09-02T15:51:22.851Z,1.40
2022-09-02T15:53:56.213Z,1.10
2022-09-02T15:56:26.466Z,1.10
2022-09-02T15:59:01.737Z,1.10
2022-09-02T16:01:32.403Z,0.87
2022-09-02T16:04:01.894Z,0.90
2022-09-02T16:06:33.132Z,0.97
2022-09-02T16:09:01.680Z,1.20
2022-09-02T16:11:30.263Z,0.90
2022-09-02T16:14:01.716Z,0.97
2022-09-02T16:16:30.147Z,0.83
2022-09-02T16:18:58.291Z,0.90
2022-09-02T16:21:26.816Z,1.13
2022-09-02T16:23:56.869Z,1.10
2022-09-02T16:26:26.371Z,0.90
2022-09-02T16:28:56.434Z,1.10
2022-09-02T16:31:27.425Z,1.20
2022-09-02T16:33:57.706Z,1.73
2022-09-02T16:36:33.752Z,1.53
2022-09-02T16:39:04.205Z,1.03
2022-09-02T16:41:35.622Z,2.03
2022-09-02T16:44:06.366Z,0.93
2022-09-02T16:46:36.264Z,2.33
2022-09-02T16:49:04.821Z,1.60
2022-09-02T16:51:35.942Z,3.30
2022-09-02T16:54:06.501Z,1.60
2022-09-02T16:56:36.837Z,1.73
2022-09-02T16:59:07.277Z,1.77
2022-09-02T17:01:36.982Z,1.30
2022-09-02T17:04:08.680Z,1.27
2022-09-02T17:06:42.035Z,1.00
2022-09-02T17:09:14.647Z,0.97
2022-09-02T17:11:45.493Z,0.97
2022-09-02T17:14:16.598Z,0.80
2022-09-02T17:16:46.684Z,1.10
2022-09-02T17:19:20.924Z,1.50
2022-09-02T17:21:51.038Z,1.10
2022-09-02T17:24:22.679Z,1.63
2022-09-02T17:26:54.392Z,1.00
2022-09-02T17:32:13.010Z,1.10
2022-09-02T17:34:41.064Z,1.33
2022-09-02T17:37:09.229Z,0.90
2022-09-02T17:39:38.904Z,0.90
2022-09-02T17:42:07.070Z,1.10
2022-09-02T17:44:38.663Z,1.67
2022-09-02T17:47:09.763Z,1.00
2022-09-02T17:49:39.332Z,0.90
2022-09-02T17:52:09.723Z,0.97
2022-09-02T17:54:40.585Z,1.47
2022-09-02T17:57:25.584Z,1.20
2022-09-02T18:00:10.337Z,1.40
2022-09-02T18:03:00.078Z,1.57
2022-09-02T18:05:32.615Z,1.20
2022-09-02T18:08:08.766Z,1.60
2022-09-02T18:10:40.092Z,1.43
2022-09-02T18:13:10.721Z,1.20
2022-09-02T18:15:52.840Z,1.03
2022-09-02T18:18:21.696Z,1.00
2022-09-02T18:20:55.556Z,1.20
2022-09-02T18:23:37.323Z,1.20
2022-09-02T18:26:17.649Z,1.57
2022-09-02T18:28:57.746Z,1.40
2022-09-02T18:31:37.396Z,1.80
2022-09-02T18:34:17.866Z,1.20
2022-09-02T18:36:55.662Z,0.93
2022-09-02T18:39:37.998Z,1.37
2022-09-02T18:42:23.395Z,1.73
2022-09-02T18:45:01.654Z,1.10
2022-09-02T18:47:34.600Z,1.40
2022-09-02T18:50:07.124Z,1.43
2022-09-02T18:52:38.585Z,1.27
2022-09-02T18:55:12.768Z,1.60
2022-09-02T18:57:53.471Z,1.20
2022-09-02T19:00:27.646Z,1.37
2022-09-02T19:03:00.344Z,1.37
2022-09-02T19:05:30.446Z,1.47
2022-09-02T19:08:24.733Z,1.30
2022-09-02T19:11:06.855Z,1.10
2022-09-02T19:13:46.042Z,0.90
2022-09-02T19:16:18.672Z,1.20
2022-09-02T19:18:49.999Z,1.20
2022-09-02T19:21:23.419Z,1.60
2022-09-02T19:23:52.092Z,1.30
2022-09-02T19:26:20.735Z,1.00
2022-09-02T19:28:51.366Z,1.33
2022-09-02T19:31:24.083Z,2.27
2022-09-02T19:33:53.717Z,1.90
2022-09-02T19:36:24.213Z,1.40
2022-09-02T19:38:57.395Z,1.67
2022-09-02T19:41:27.867Z,1.77
2022-09-02T19:43:57.721Z,1.93
2022-09-02T19:47:11.909Z,1.87
2022-09-02T19:49:14.294Z,1.90
2022-09-02T19:51:42.621Z,1.50
2022-09-02T19:54:12.490Z,1.60
2022-09-02T19:56:41.120Z,1.07
2022-09-02T19:59:11.043Z,1.80
2022-09-02T20:01:39.540Z,1.03
2022-09-02T20:04:11.742Z,1.43
2022-09-02T20:06:40.266Z,0.87
2022-09-02T20:09:11.290Z,0.97
2022-09-02T20:11:41.252Z,1.20
2022-09-02T20:14:10.831Z,1.17
2022-09-02T20:16:39.198Z,0.93
2022-09-02T20:19:07.275Z,1.43
2022-09-02T20:21:43.168Z,0.90
2022-09-02T20:24:13.786Z,1.10
2022-09-02T20:26:51.272Z,1.20
2022-09-02T20:29:37.271Z,1.37
2022-09-02T20:32:15.807Z,1.30
2022-09-02T20:34:57.395Z,1.10
2022-09-02T20:37:41.071Z,1.40
2022-09-02T20:40:32.510Z,0.97
2022-09-02T20:43:22.326Z,1.20
2022-09-02T20:45:57.154Z,1.40
2022-09-02T20:48:44.963Z,1.30
2022-09-02T20:51:17.231Z,1.83
2022-09-02T20:54:15.521Z,1.30
2022-09-02T20:56:55.571Z,1.33
2022-09-02T20:59:33.973Z,1.33
2022-09-02T21:02:05.719Z,1.37
2022-09-02T21:04:39.168Z,1.30
2022-09-02T21:07:12.529Z,1.17
2022-09-02T21:09:47.595Z,1.83
2022-09-02T21:12:24.337Z,1.40
2022-09-02T21:15:01.551Z,1.50
2022-09-02T21:17:40.204Z,2.00
2022-09-02T21:20:13.940Z,2.30
2022-09-02T21:22:46.487Z,1.63
2022-09-02T21:25:21.260Z,1.90
2022-09-02T21:27:54.547Z,1.80
2022-09-02T21:30:25.340Z,1.40
2022-09-02T21:32:57.599Z,1.67
2022-09-02T21:35:29.878Z,1.10
2022-09-02T21:38:02.833Z,1.60
2022-09-02T21:40:45.402Z,1.27
2022-09-02T21:43:42.836Z,1.23
2022-09-02T21:46:22.396Z,1.50
2022-09-02T21:48:59.791Z,1.30
2022-09-02T21:51:33.902Z,1.40
2022-09-02T21:54:20.101Z,1.07
2022-09-02T21:56:58.620Z,1.63
2022-09-02T21:59:46.753Z,2.37
2022-09-02T22:02:21.362Z,1.87
2022-09-02T22:05:02.244Z,1.40
2022-09-02T22:07:38.173Z,1.50
2022-09-02T22:10:18.199Z,1.57
2022-09-02T22:12:52.424Z,1.50
2022-09-02T22:15:28.632Z,1.50
2022-09-02T22:18:01.856Z,1.53
2022-09-02T22:20:35.404Z,1.20
2022-09-02T22:23:07.887Z,1.20
2022-09-02T22:25:38.036Z,1.30
2022-09-02T22:28:12.398Z,1.20
2022-09-02T22:30:46.205Z,1.10
2022-09-02T22:33:17.708Z,1.30
2022-09-02T22:35:56.251Z,1.67
2022-09-02T22:38:30.213Z,1.50
2022-09-02T22:41:04.347Z,1.70
2022-09-02T22:43:41.570Z,1.50
2022-09-02T22:46:32.648Z,1.40
2022-09-02T22:49:24.237Z,1.50
2022-09-02T22:52:21.585Z,1.37
2022-09-02T22:54:50.194Z,1.20
2022-09-02T22:57:33.801Z,1.50
2022-09-02T23:00:08.168Z,2.30
2022-09-02T23:02:38.555Z,1.30
2022-09-02T23:05:35.205Z,1.23
2022-09-02T23:08:06.095Z,1.10
2022-09-02T23:10:39.347Z,1.50
2022-09-02T23:13:14.265Z,1.70
2022-09-02T23:15:55.229Z,1.17
2022-09-02T23:18:29.974Z,1.63
2022-09-02T23:21:05.040Z,1.20
2022-09-02T23:23:42.059Z,1.30
2022-09-02T23:26:20.895Z,1.50
2022-09-02T23:29:17.436Z,1.20
2022-09-02T23:32:03.927Z,1.87
2022-09-02T23:34:45.329Z,1.37
2022-09-02T23:37:32.419Z,1.60
2022-09-02T23:40:11.569Z,1.37
2022-09-02T23:42:39.935Z,1.83
2022-09-02T23:45:19.361Z,1.50
2022-09-02T23:48:01.515Z,1.20
2022-09-02T23:50:37.799Z,1.77
2022-09-02T23:53:10.890Z,1.93
2022-09-02T23:55:48.636Z,1.53
2022-09-02T23:58:29.582Z,1.47
